Havana, Cuba
Current Conditions -  °F | °C
As of 2:55 AM on Saturday 25 Oct 2014 (Local Time) from MUHA Reporting Station
Scattered Clouds Scattered Clouds  
Wind Chill: 75°   Ceiling: Unl
Heat Index: 75°   Visibility: 6mi
Dew Point: 70°   Wind: 8mph
Humidity: 83%   Direction: 40°NE
Pressure: 29.85"   Gusts: NA
Location:  23.12°N, 82.39°W
Report Text: MUHA 250655Z 04007KT 9000 SCT023 24/21 Q1011
Loading
Personal Weather Stations






























Interactive Weather Map New forecast layout! Learn more

10-Day Weather Forecast

Advertisements
Track Severe Weather on mobile